Decoded Metar for LCPH (PAPHOS in CYPRUS) (IATA:PFO) | Meteo·Mobile Aviation Weather
aviador You're here:

LCPH Decoded Metar

PAPHOS in CYPRUS
Report Time2020-01-27 02:00:00
UTC Time2020-01-27 02:21:25
Flight Rules vfr VFR
Wind030° at 05 kt
W.Decomp.*RWY 11: 0.5 kt HW 5 kt LCW
Visibility9999 m
Phenomena:N/A
Clouds:Overcast 037 Hf
Expected CloudBase > 1,200 ft AGL from Temp-Dew spread
Ceiling3,700 ft
Temp10°C (ISA -5)
Dew Point07°C (82% RH)
AAT7.5°C
QNH1026 hPa
Density Alt-869 ft
Elevation26 ft
Report Wrong Elevation
Raw Report
LCPH 270200Z AUTO 03005KT 9999 OVC037 10/07 Q1026=

Extra information for LCPH:More info

Metar Taf Metar & Taf Last 4 Metars F.Rules Stats Wind Profile Meteogram Temp Stats Airport Information Weather charts Add Link Nearby VenuesMetar ALERT Operation Metar Decoded Social comments